Wolf, Kentucky
Current Conditions -  °F | °C
As of 11:10 AM on Wednesday 22 Oct 2014 (Local Time) from KSYM Reporting Station
Overcast Overcast  
Wind Chill: 44°   Ceiling: 1700
Heat Index: 46°   Visibility: 10mi
Dew Point: 41°   Wind: 6mph
Humidity: 81%   Direction: 330°NNW
Pressure: 30.29"   Gusts: NA
Location:  38.3543°N, 83.1837°W
Report Text: KSYM 221510Z AUTO 33005KT 10SM OVC017 08/05 A3029 RMK AO2
Loading
Personal Weather Stations






























Interactive Weather Map
Tropical Storm Tracking
New forecast layout! Learn more

10-Day Weather Forecast

Advertisements
Track Severe Weather on mobile